Página principal
METAR-TAF:

METAR-TAF

Aeroportos :

Bagdá, Iraque

Aeroporto Internacional de Bagdad

latitude: 33-15-45N, longitude: 44-14-04E, altura: 35 m

Observação actual do tempo

O boletim foi feito há 32 minutos, às 13:00 UTC
Vento 8 kt de este
Temperatura 19°C
Humidade 52%
Pressão 1012 hPa
Visibilidade 10 km ou mais
Nuvens fragmentadasa uma altura de 3000 ft

METAR: ORBI 211300Z 10008KT 9999 BKN030 19/09 Q1012 NOSIG

Hora: 16:32 (13:32 UTC)

Previsão

O boletim foi feito há 27 horas e 32 minutos, às 10:00 UTC
Previsão válida de 20 às 12 UTC a 21 às 12 UTC
Vento 3 kt com direcção variável
Visibilidade: 7000 m
Nuvens dispersasa uma altura de 3000 ft

TAF: ORBI 201000Z 2012/2112 VRB03KT 7000 SCT030

Observações e previsões do tempo de mais de 4000 aeroportos (mensagens METAR e TAF).

As estações disponíveis são os pontos amarelos e vermelhos sobre o mapa.

Mova o rato sobre o mapa para ver o nome da estação.

Depois clique no ponto para visualizar as observações e previsões meteorológicas.

Para alterar o mapa : clique nos botões verdes com uma cruz preta para aumentar o zoom; no botão verde com uma pitada de zoom; ou nas setas verdes para mapas adjacentes.


METAR-TAF: